Escatawpa, Mississippi
Current Conditions -  °F | °C
As of 4:09 PM on Friday 19 Dec 2014 (Local Time) from KPQL Reporting Station
Moderate Rain Moderate Rain  
Wind Chill: 50°   Ceiling: 2900
Heat Index: 50°   Visibility: 4mi
Dew Point: 48°   Wind: 10mph
Humidity: 93%   Direction: 40°NE
Pressure: 30.08"   Gusts: NA
Location:  30.44°N, 88.55°W
Report Text: KPQL 192209Z 04009KT 4SM RA BR OVC029 10/09 A3008 RMK AO2 P0003 T01000089
Loading
Personal Weather Stations






























Interactive Weather Map New forecast layout! Learn more

10-Day Weather Forecast

Advertisements
Track Severe Weather on mobile